sensor_id;sensor_type;location;lat;lon;timestamp;P1;durP1;ratioP1;P2;durP2;ratioP2
13051;SDS011;6592;47.484;9.726;2023-02-01T00:01:22;12.30;;;4.65;;
13051;SDS011;6592;47.484;9.726;2023-02-01T00:03:50;15.27;;;5.43;;
13051;SDS011;6592;47.484;9.726;2023-02-01T00:06:19;12.48;;;4.82;;
13051;SDS011;6592;47.484;9.726;2023-02-01T00:08:47;11.60;;;5.13;;
13051;SDS011;6592;47.484;9.726;2023-02-01T00:11:15;13.43;;;5.30;;
13051;SDS011;6592;47.484;9.726;2023-02-01T00:13:43;13.00;;;4.88;;
13051;SDS011;6592;47.484;9.726;2023-02-01T00:16:13;12.10;;;4.93;;
13051;SDS011;6592;47.484;9.726;2023-02-01T00:18:44;12.38;;;5.47;;
13051;SDS011;6592;47.484;9.726;2023-02-01T00:21:13;10.45;;;4.32;;
13051;SDS011;6592;47.484;9.726;2023-02-01T00:23:42;10.15;;;4.45;;
13051;SDS011;6592;47.484;9.726;2023-02-01T00:26:11;12.43;;;4.88;;
13051;SDS011;6592;47.484;9.726;2023-02-01T00:28:42;13.27;;;5.00;;
13051;SDS011;6592;47.484;9.726;2023-02-01T00:31:11;14.68;;;5.40;;
13051;SDS011;6592;47.484;9.726;2023-02-01T00:33:41;12.27;;;4.90;;
13051;SDS011;6592;47.484;9.726;2023-02-01T00:36:09;11.52;;;4.20;;
13051;SDS011;6592;47.484;9.726;2023-02-01T00:38:38;13.40;;;5.28;;
13051;SDS011;6592;47.484;9.726;2023-02-01T00:41:07;11.35;;;5.03;;
13051;SDS011;6592;47.484;9.726;2023-02-01T00:43:38;10.98;;;4.45;;
13051;SDS011;6592;47.484;9.726;2023-02-01T00:46:06;10.75;;;4.88;;
13051;SDS011;6592;47.484;9.726;2023-02-01T00:48:36;11.60;;;5.43;;
13051;SDS011;6592;47.484;9.726;2023-02-01T00:51:05;13.40;;;5.38;;
13051;SDS011;6592;47.484;9.726;2023-02-01T00:53:35;10.60;;;5.43;;
13051;SDS011;6592;47.484;9.726;2023-02-01T00:56:04;11.77;;;5.10;;
13051;SDS011;6592;47.484;9.726;2023-02-01T00:58:33;12.38;;;5.45;;
13051;SDS011;6592;47.484;9.726;2023-02-01T01:01:02;12.13;;;5.78;;
13051;SDS011;6592;47.484;9.726;2023-02-01T01:03:33;11.63;;;5.38;;
13051;SDS011;6592;47.484;9.726;2023-02-01T01:06:06;16.30;;;5.93;;
13051;SDS011;6592;47.484;9.726;2023-02-01T01:08:35;14.90;;;5.70;;
13051;SDS011;6592;47.484;9.726;2023-02-01T01:11:05;13.32;;;5.60;;
13051;SDS011;6592;47.484;9.726;2023-02-01T01:13:34;19.27;;;8.48;;
13051;SDS011;6592;47.484;9.726;2023-02-01T01:16:03;17.02;;;7.10;;
13051;SDS011;6592;47.484;9.726;2023-02-01T01:18:33;14.82;;;5.80;;
13051;SDS011;6592;47.484;9.726;2023-02-01T01:21:04;11.65;;;5.15;;
13051;SDS011;6592;47.484;9.726;2023-02-01T01:23:34;12.68;;;5.35;;
13051;SDS011;6592;47.484;9.726;2023-02-01T01:26:04;10.77;;;4.88;;
13051;SDS011;6592;47.484;9.726;2023-02-01T01:28:34;14.48;;;5.45;;
13051;SDS011;6592;47.484;9.726;2023-02-01T01:31:02;12.77;;;5.47;;
13051;SDS011;6592;47.484;9.726;2023-02-01T01:33:31;14.75;;;5.47;;
13051;SDS011;6592;47.484;9.726;2023-02-01T01:35:59;12.35;;;5.25;;
13051;SDS011;6592;47.484;9.726;2023-02-01T01:38:29;13.27;;;5.97;;
13051;SDS011;6592;47.484;9.726;2023-02-01T01:40:57;11.65;;;5.57;;
13051;SDS011;6592;47.484;9.726;2023-02-01T01:43:25;13.40;;;5.75;;
13051;SDS011;6592;47.484;9.726;2023-02-01T01:46:08;18.98;;;6.30;;
13051;SDS011;6592;47.484;9.726;2023-02-01T01:48:36;11.20;;;5.65;;
13051;SDS011;6592;47.484;9.726;2023-02-01T01:51:05;15.20;;;5.90;;
13051;SDS011;6592;47.484;9.726;2023-02-01T01:53:41;11.48;;;5.32;;
13051;SDS011;6592;47.484;9.726;2023-02-01T01:56:12;14.02;;;5.68;;
13051;SDS011;6592;47.484;9.726;2023-02-01T01:58:41;12.07;;;4.93;;
13051;SDS011;6592;47.484;9.726;2023-02-01T02:01:10;11.25;;;5.20;;
13051;SDS011;6592;47.484;9.726;2023-02-01T02:03:39;13.18;;;6.20;;
13051;SDS011;6592;47.484;9.726;2023-02-01T02:06:11;12.45;;;5.78;;
13051;SDS011;6592;47.484;9.726;2023-02-01T02:08:45;11.45;;;5.28;;
13051;SDS011;6592;47.484;9.726;2023-02-01T02:11:14;12.93;;;5.38;;
13051;SDS011;6592;47.484;9.726;2023-02-01T02:13:45;13.52;;;5.30;;
13051;SDS011;6592;47.484;9.726;2023-02-01T02:16:19;11.13;;;4.95;;
13051;SDS011;6592;47.484;9.726;2023-02-01T02:19:05;12.50;;;5.72;;
13051;SDS011;6592;47.484;9.726;2023-02-01T02:21:56;10.15;;;4.63;;
13051;SDS011;6592;47.484;9.726;2023-02-01T02:28:11;11.57;;;4.97;;
13051;SDS011;6592;47.484;9.726;2023-02-01T02:30:58;9.20;;;4.60;;
13051;SDS011;6592;47.484;9.726;2023-02-01T02:33:59;11.50;;;4.97;;
13051;SDS011;6592;47.484;9.726;2023-02-01T02:36:38;11.93;;;4.95;;
13051;SDS011;6592;47.484;9.726;2023-02-01T02:39:14;9.15;;;4.38;;
13051;SDS011;6592;47.484;9.726;2023-02-01T02:41:48;11.18;;;5.00;;
13051;SDS011;6592;47.484;9.726;2023-02-01T02:44:42;11.63;;;5.10;;
13051;SDS011;6592;47.484;9.726;2023-02-01T02:47:33;14.60;;;4.90;;
13051;SDS011;6592;47.484;9.726;2023-02-01T02:50:09;14.60;;;5.55;;
13051;SDS011;6592;47.484;9.726;2023-02-01T02:53:03;13.20;;;4.88;;
13051;SDS011;6592;47.484;9.726;2023-02-01T02:55:54;11.30;;;4.57;;
13051;SDS011;6592;47.484;9.726;2023-02-01T02:58:42;12.60;;;5.35;;
13051;SDS011;6592;47.484;9.726;2023-02-01T03:01:30;9.90;;;4.88;;
13051;SDS011;6592;47.484;9.726;2023-02-01T03:04:17;9.98;;;5.07;;
13051;SDS011;6592;47.484;9.726;2023-02-01T03:06:47;14.82;;;5.32;;
13051;SDS011;6592;47.484;9.726;2023-02-01T03:09:17;11.02;;;5.05;;
13051;SDS011;6592;47.484;9.726;2023-02-01T03:11:50;10.57;;;4.75;;
13051;SDS011;6592;47.484;9.726;2023-02-01T03:14:40;14.88;;;5.32;;
13051;SDS011;6592;47.484;9.726;2023-02-01T03:17:14;13.55;;;5.60;;
13051;SDS011;6592;47.484;9.726;2023-02-01T03:19:47;12.30;;;4.75;;
13051;SDS011;6592;47.484;9.726;2023-02-01T03:22:20;10.73;;;4.68;;
13051;SDS011;6592;47.484;9.726;2023-02-01T03:24:52;12.73;;;5.40;;
13051;SDS011;6592;47.484;9.726;2023-02-01T03:27:24;19.10;;;7.57;;
13051;SDS011;6592;47.484;9.726;2023-02-01T03:29:59;19.38;;;8.10;;
13051;SDS011;6592;47.484;9.726;2023-02-01T03:32:32;16.83;;;7.35;;
13051;SDS011;6592;47.484;9.726;2023-02-01T03:35:23;11.95;;;5.32;;
13051;SDS011;6592;47.484;9.726;2023-02-01T03:38:00;13.98;;;5.68;;
13051;SDS011;6592;47.484;9.726;2023-02-01T03:40:32;8.52;;;4.07;;
13051;SDS011;6592;47.484;9.726;2023-02-01T03:43:04;9.15;;;4.63;;
13051;SDS011;6592;47.484;9.726;2023-02-01T03:45:35;10.60;;;4.30;;
13051;SDS011;6592;47.484;9.726;2023-02-01T03:48:09;11.65;;;4.18;;
13051;SDS011;6592;47.484;9.726;2023-02-01T03:50:43;12.43;;;4.97;;
13051;SDS011;6592;47.484;9.726;2023-02-01T03:53:17;8.55;;;3.90;;
13051;SDS011;6592;47.484;9.726;2023-02-01T03:55:49;12.30;;;4.65;;
13051;SDS011;6592;47.484;9.726;2023-02-01T03:58:20;9.75;;;3.97;;
13051;SDS011;6592;47.484;9.726;2023-02-01T04:00:50;8.97;;;3.90;;
13051;SDS011;6592;47.484;9.726;2023-02-01T04:03:20;9.32;;;3.78;;
13051;SDS011;6592;47.484;9.726;2023-02-01T04:05:49;7.93;;;3.85;;
13051;SDS011;6592;47.484;9.726;2023-02-01T04:08:19;10.57;;;4.07;;
13051;SDS011;6592;47.484;9.726;2023-02-01T04:10:48;9.25;;;4.22;;
13051;SDS011;6592;47.484;9.726;2023-02-01T04:13:16;12.57;;;3.70;;
13051;SDS011;6592;47.484;9.726;2023-02-01T04:15:46;9.98;;;4.03;;
13051;SDS011;6592;47.484;9.726;2023-02-01T04:18:16;13.90;;;4.30;;
13051;SDS011;6592;47.484;9.726;2023-02-01T04:20:44;11.05;;;4.32;;
13051;SDS011;6592;47.484;9.726;2023-02-01T04:23:12;11.27;;;4.65;;
13051;SDS011;6592;47.484;9.726;2023-02-01T04:25:43;10.50;;;4.03;;
13051;SDS011;6592;47.484;9.726;2023-02-01T04:28:11;11.88;;;4.20;;
13051;SDS011;6592;47.484;9.726;2023-02-01T04:30:40;8.85;;;4.20;;
13051;SDS011;6592;47.484;9.726;2023-02-01T04:33:08;10.50;;;4.47;;
13051;SDS011;6592;47.484;9.726;2023-02-01T04:35:40;18.75;;;7.65;;
13051;SDS011;6592;47.484;9.726;2023-02-01T04:38:08;19.55;;;7.55;;
13051;SDS011;6592;47.484;9.726;2023-02-01T04:40:36;9.32;;;4.05;;
13051;SDS011;6592;47.484;9.726;2023-02-01T04:43:06;10.50;;;4.15;;
13051;SDS011;6592;47.484;9.726;2023-02-01T04:45:34;9.15;;;3.30;;
13051;SDS011;6592;47.484;9.726;2023-02-01T04:48:03;9.18;;;3.88;;
13051;SDS011;6592;47.484;9.726;2023-02-01T04:50:31;7.38;;;3.75;;
13051;SDS011;6592;47.484;9.726;2023-02-01T04:53:00;8.18;;;3.85;;
13051;SDS011;6592;47.484;9.726;2023-02-01T04:55:28;12.25;;;4.43;;
13051;SDS011;6592;47.484;9.726;2023-02-01T04:57:57;7.93;;;3.60;;
13051;SDS011;6592;47.484;9.726;2023-02-01T05:00:26;7.93;;;3.60;;
13051;SDS011;6592;47.484;9.726;2023-02-01T05:02:54;9.25;;;3.88;;
13051;SDS011;6592;47.484;9.726;2023-02-01T05:05:23;10.52;;;4.50;;
13051;SDS011;6592;47.484;9.726;2023-02-01T05:07:51;9.45;;;3.63;;
13051;SDS011;6592;47.484;9.726;2023-02-01T05:10:20;6.53;;;3.70;;
13051;SDS011;6592;47.484;9.726;2023-02-01T05:12:48;8.77;;;4.00;;
13051;SDS011;6592;47.484;9.726;2023-02-01T05:15:35;7.32;;;3.15;;
13051;SDS011;6592;47.484;9.726;2023-02-01T05:18:03;7.72;;;3.20;;
13051;SDS011;6592;47.484;9.726;2023-02-01T05:20:32;7.70;;;2.85;;
13051;SDS011;6592;47.484;9.726;2023-02-01T05:23:00;6.13;;;2.90;;
13051;SDS011;6592;47.484;9.726;2023-02-01T05:25:28;9.25;;;3.10;;
13051;SDS011;6592;47.484;9.726;2023-02-01T05:27:56;7.57;;;2.72;;
13051;SDS011;6592;47.484;9.726;2023-02-01T05:30:25;7.28;;;2.60;;
13051;SDS011;6592;47.484;9.726;2023-02-01T05:32:54;7.60;;;3.38;;
13051;SDS011;6592;47.484;9.726;2023-02-01T05:35:23;7.45;;;3.47;;
13051;SDS011;6592;47.484;9.726;2023-02-01T05:37:51;14.80;;;3.80;;
13051;SDS011;6592;47.484;9.726;2023-02-01T05:40:19;9.18;;;4.30;;
13051;SDS011;6592;47.484;9.726;2023-02-01T05:42:48;9.43;;;2.13;;
13051;SDS011;6592;47.484;9.726;2023-02-01T05:45:16;7.72;;;3.40;;
13051;SDS011;6592;47.484;9.726;2023-02-01T05:47:44;5.43;;;2.17;;
13051;SDS011;6592;47.484;9.726;2023-02-01T05:52:43;8.07;;;3.17;;
13051;SDS011;6592;47.484;9.726;2023-02-01T05:55:11;6.78;;;3.00;;
13051;SDS011;6592;47.484;9.726;2023-02-01T05:57:40;8.13;;;2.95;;
13051;SDS011;6592;47.484;9.726;2023-02-01T06:00:08;8.98;;;3.55;;
13051;SDS011;6592;47.484;9.726;2023-02-01T06:02:37;12.07;;;3.38;;
13051;SDS011;6592;47.484;9.726;2023-02-01T06:05:07;8.23;;;3.37;;
13051;SDS011;6592;47.484;9.726;2023-02-01T06:07:37;9.57;;;4.00;;
13051;SDS011;6592;47.484;9.726;2023-02-01T06:10:05;13.23;;;3.70;;
13051;SDS011;6592;47.484;9.726;2023-02-01T06:12:34;9.65;;;4.20;;
13051;SDS011;6592;47.484;9.726;2023-02-01T06:15:03;7.25;;;3.13;;
13051;SDS011;6592;47.484;9.726;2023-02-01T06:17:31;6.25;;;3.30;;
13051;SDS011;6592;47.484;9.726;2023-02-01T06:20:00;9.07;;;3.53;;
13051;SDS011;6592;47.484;9.726;2023-02-01T06:22:28;6.18;;;3.03;;
13051;SDS011;6592;47.484;9.726;2023-02-01T06:24:58;7.95;;;3.35;;
13051;SDS011;6592;47.484;9.726;2023-02-01T06:27:26;8.20;;;3.00;;
13051;SDS011;6592;47.484;9.726;2023-02-01T06:29:54;6.07;;;2.45;;
13051;SDS011;6592;47.484;9.726;2023-02-01T06:32:23;6.25;;;2.63;;
13051;SDS011;6592;47.484;9.726;2023-02-01T06:34:51;7.45;;;2.58;;
13051;SDS011;6592;47.484;9.726;2023-02-01T06:37:19;6.90;;;2.60;;
13051;SDS011;6592;47.484;9.726;2023-02-01T06:39:47;6.65;;;2.60;;
13051;SDS011;6592;47.484;9.726;2023-02-01T06:42:17;5.40;;;2.40;;
13051;SDS011;6592;47.484;9.726;2023-02-01T06:44:45;7.30;;;2.73;;
13051;SDS011;6592;47.484;9.726;2023-02-01T06:47:13;13.83;;;4.50;;
13051;SDS011;6592;47.484;9.726;2023-02-01T06:49:42;14.40;;;3.92;;
13051;SDS011;6592;47.484;9.726;2023-02-01T06:52:10;4.45;;;2.17;;
13051;SDS011;6592;47.484;9.726;2023-02-01T06:54:38;8.07;;;2.67;;
13051;SDS011;6592;47.484;9.726;2023-02-01T06:57:06;7.87;;;2.90;;
13051;SDS011;6592;47.484;9.726;2023-02-01T06:59:36;11.43;;;3.10;;
13051;SDS011;6592;47.484;9.726;2023-02-01T07:02:04;7.43;;;2.87;;
13051;SDS011;6592;47.484;9.726;2023-02-01T07:04:33;6.83;;;3.00;;
13051;SDS011;6592;47.484;9.726;2023-02-01T07:07:01;6.33;;;2.97;;
13051;SDS011;6592;47.484;9.726;2023-02-01T07:09:29;5.80;;;2.77;;
13051;SDS011;6592;47.484;9.726;2023-02-01T07:11:57;7.97;;;3.30;;
13051;SDS011;6592;47.484;9.726;2023-02-01T07:14:26;11.70;;;4.67;;
13051;SDS011;6592;47.484;9.726;2023-02-01T07:16:55;10.43;;;3.95;;
13051;SDS011;6592;47.484;9.726;2023-02-01T07:19:24;9.57;;;3.53;;
13051;SDS011;6592;47.484;9.726;2023-02-01T07:21:52;10.93;;;4.80;;
13051;SDS011;6592;47.484;9.726;2023-02-01T07:24:20;12.98;;;5.82;;
13051;SDS011;6592;47.484;9.726;2023-02-01T07:26:48;11.35;;;5.22;;
13051;SDS011;6592;47.484;9.726;2023-02-01T07:29:17;11.95;;;3.97;;
13051;SDS011;6592;47.484;9.726;2023-02-01T07:31:45;6.97;;;3.13;;
13051;SDS011;6592;47.484;9.726;2023-02-01T07:34:15;9.40;;;3.55;;
13051;SDS011;6592;47.484;9.726;2023-02-01T07:36:43;7.85;;;3.45;;
13051;SDS011;6592;47.484;9.726;2023-02-01T07:39:11;8.57;;;3.47;;
13051;SDS011;6592;47.484;9.726;2023-02-01T07:41:40;9.57;;;3.35;;
13051;SDS011;6592;47.484;9.726;2023-02-01T07:44:08;9.93;;;3.45;;
13051;SDS011;6592;47.484;9.726;2023-02-01T07:46:37;6.07;;;2.63;;
13051;SDS011;6592;47.484;9.726;2023-02-01T07:49:05;10.05;;;3.25;;
13051;SDS011;6592;47.484;9.726;2023-02-01T07:51:35;7.88;;;3.47;;
13051;SDS011;6592;47.484;9.726;2023-02-01T07:54:03;7.88;;;3.17;;
13051;SDS011;6592;47.484;9.726;2023-02-01T07:56:31;5.70;;;2.50;;
13051;SDS011;6592;47.484;9.726;2023-02-01T07:59:00;5.57;;;2.55;;
13051;SDS011;6592;47.484;9.726;2023-02-01T08:01:28;6.72;;;2.80;;
13051;SDS011;6592;47.484;9.726;2023-02-01T08:03:56;8.60;;;3.40;;
13051;SDS011;6592;47.484;9.726;2023-02-01T08:06:26;9.40;;;2.73;;
13051;SDS011;6592;47.484;9.726;2023-02-01T08:09:02;6.63;;;2.67;;
13051;SDS011;6592;47.484;9.726;2023-02-01T08:11:34;8.55;;;2.70;;
13051;SDS011;6592;47.484;9.726;2023-02-01T08:14:04;10.30;;;3.13;;
13051;SDS011;6592;47.484;9.726;2023-02-01T08:16:33;6.50;;;2.78;;
13051;SDS011;6592;47.484;9.726;2023-02-01T08:19:03;7.03;;;2.60;;
13051;SDS011;6592;47.484;9.726;2023-02-01T08:21:31;8.13;;;2.20;;
13051;SDS011;6592;47.484;9.726;2023-02-01T08:26:34;11.25;;;2.60;;
13051;SDS011;6592;47.484;9.726;2023-02-01T08:29:03;5.80;;;2.72;;
13051;SDS011;6592;47.484;9.726;2023-02-01T08:31:33;7.13;;;2.93;;
13051;SDS011;6592;47.484;9.726;2023-02-01T08:34:02;6.88;;;2.60;;
13051;SDS011;6592;47.484;9.726;2023-02-01T08:36:31;7.10;;;2.58;;
13051;SDS011;6592;47.484;9.726;2023-02-01T08:38:59;7.78;;;2.95;;
13051;SDS011;6592;47.484;9.726;2023-02-01T08:41:33;6.90;;;2.33;;
13051;SDS011;6592;47.484;9.726;2023-02-01T08:44:01;9.90;;;3.10;;
13051;SDS011;6592;47.484;9.726;2023-02-01T08:46:30;7.40;;;2.65;;
13051;SDS011;6592;47.484;9.726;2023-02-01T08:48:58;7.30;;;2.90;;
13051;SDS011;6592;47.484;9.726;2023-02-01T08:51:27;6.95;;;2.83;;
13051;SDS011;6592;47.484;9.726;2023-02-01T08:53:55;10.13;;;3.20;;
13051;SDS011;6592;47.484;9.726;2023-02-01T08:56:23;5.60;;;2.50;;
13051;SDS011;6592;47.484;9.726;2023-02-01T08:58:53;6.80;;;2.47;;
13051;SDS011;6592;47.484;9.726;2023-02-01T09:01:21;8.05;;;3.47;;
13051;SDS011;6592;47.484;9.726;2023-02-01T09:03:49;12.57;;;3.72;;
13051;SDS011;6592;47.484;9.726;2023-02-01T09:06:18;9.90;;;3.17;;
13051;SDS011;6592;47.484;9.726;2023-02-01T09:08:46;9.80;;;4.20;;
13051;SDS011;6592;47.484;9.726;2023-02-01T09:11:15;7.05;;;3.00;;
13051;SDS011;6592;47.484;9.726;2023-02-01T09:13:46;7.15;;;3.08;;
13051;SDS011;6592;47.484;9.726;2023-02-01T09:16:16;11.85;;;4.28;;
13051;SDS011;6592;47.484;9.726;2023-02-01T09:18:45;8.38;;;3.22;;
13051;SDS011;6592;47.484;9.726;2023-02-01T09:21:33;11.68;;;4.30;;
13051;SDS011;6592;47.484;9.726;2023-02-01T09:24:01;33.08;;;10.73;;
13051;SDS011;6592;47.484;9.726;2023-02-01T09:26:30;19.90;;;6.65;;
13051;SDS011;6592;47.484;9.726;2023-02-01T09:28:59;35.10;;;12.55;;
13051;SDS011;6592;47.484;9.726;2023-02-01T09:31:29;23.50;;;9.38;;
13051;SDS011;6592;47.484;9.726;2023-02-01T09:33:58;8.90;;;3.95;;
13051;SDS011;6592;47.484;9.726;2023-02-01T09:36:26;14.80;;;6.82;;
13051;SDS011;6592;47.484;9.726;2023-02-01T09:38:56;15.60;;;6.97;;
13051;SDS011;6592;47.484;9.726;2023-02-01T09:41:27;10.18;;;4.47;;
13051;SDS011;6592;47.484;9.726;2023-02-01T09:44:07;13.73;;;4.85;;
13051;SDS011;6592;47.484;9.726;2023-02-01T09:46:45;15.55;;;3.80;;
13051;SDS011;6592;47.484;9.726;2023-02-01T09:49:15;9.13;;;3.30;;
13051;SDS011;6592;47.484;9.726;2023-02-01T09:51:48;11.75;;;4.07;;
13051;SDS011;6592;47.484;9.726;2023-02-01T09:54:18;11.15;;;3.88;;
13051;SDS011;6592;47.484;9.726;2023-02-01T09:56:51;5.60;;;2.35;;
13051;SDS011;6592;47.484;9.726;2023-02-01T09:59:30;7.93;;;2.83;;
13051;SDS011;6592;47.484;9.726;2023-02-01T10:02:11;6.97;;;2.42;;
13051;SDS011;6592;47.484;9.726;2023-02-01T10:04:41;8.45;;;2.92;;
13051;SDS011;6592;47.484;9.726;2023-02-01T10:07:13;8.32;;;3.25;;
13051;SDS011;6592;47.484;9.726;2023-02-01T10:09:54;9.93;;;3.53;;
13051;SDS011;6592;47.484;9.726;2023-02-01T10:12:37;6.75;;;2.70;;
13051;SDS011;6592;47.484;9.726;2023-02-01T10:15:26;5.90;;;2.90;;
13051;SDS011;6592;47.484;9.726;2023-02-01T10:18:09;7.10;;;3.03;;
13051;SDS011;6592;47.484;9.726;2023-02-01T10:20:56;9.98;;;4.25;;
13051;SDS011;6592;47.484;9.726;2023-02-01T10:23:42;19.35;;;8.30;;
13051;SDS011;6592;47.484;9.726;2023-02-01T10:26:44;14.38;;;5.28;;
13051;SDS011;6592;47.484;9.726;2023-02-01T10:29:16;16.58;;;6.30;;
13051;SDS011;6592;47.484;9.726;2023-02-01T10:31:46;17.77;;;8.02;;
13051;SDS011;6592;47.484;9.726;2023-02-01T10:34:17;13.75;;;4.57;;
13051;SDS011;6592;47.484;9.726;2023-02-01T10:37:00;18.63;;;7.63;;
13051;SDS011;6592;47.484;9.726;2023-02-01T10:39:32;12.30;;;5.13;;
13051;SDS011;6592;47.484;9.726;2023-02-01T10:42:00;14.18;;;6.30;;
13051;SDS011;6592;47.484;9.726;2023-02-01T10:44:28;17.10;;;8.88;;
13051;SDS011;6592;47.484;9.726;2023-02-01T10:46:58;10.75;;;4.30;;
13051;SDS011;6592;47.484;9.726;2023-02-01T10:49:29;14.30;;;4.68;;
13051;SDS011;6592;47.484;9.726;2023-02-01T10:52:05;10.90;;;2.92;;
13051;SDS011;6592;47.484;9.726;2023-02-01T10:54:40;6.32;;;2.58;;
13051;SDS011;6592;47.484;9.726;2023-02-01T10:57:08;11.02;;;3.22;;
13051;SDS011;6592;47.484;9.726;2023-02-01T10:59:37;5.60;;;2.45;;
13051;SDS011;6592;47.484;9.726;2023-02-01T11:02:13;4.10;;;2.08;;
13051;SDS011;6592;47.484;9.726;2023-02-01T11:04:49;9.02;;;2.72;;
13051;SDS011;6592;47.484;9.726;2023-02-01T11:07:19;13.68;;;5.03;;
13051;SDS011;6592;47.484;9.726;2023-02-01T11:09:52;10.82;;;3.80;;
13051;SDS011;6592;47.484;9.726;2023-02-01T11:12:24;5.77;;;2.70;;
13051;SDS011;6592;47.484;9.726;2023-02-01T11:15:00;8.18;;;3.28;;
13051;SDS011;6592;47.484;9.726;2023-02-01T11:17:40;7.05;;;3.20;;
13051;SDS011;6592;47.484;9.726;2023-02-01T11:20:14;6.50;;;2.63;;
13051;SDS011;6592;47.484;9.726;2023-02-01T11:22:45;5.80;;;2.17;;
13051;SDS011;6592;47.484;9.726;2023-02-01T11:25:15;6.25;;;2.22;;
13051;SDS011;6592;47.484;9.726;2023-02-01T11:27:45;3.58;;;1.80;;
13051;SDS011;6592;47.484;9.726;2023-02-01T11:30:22;4.97;;;1.73;;
13051;SDS011;6592;47.484;9.726;2023-02-01T11:32:59;4.15;;;1.70;;
13051;SDS011;6592;47.484;9.726;2023-02-01T11:35:33;4.88;;;1.80;;
13051;SDS011;6592;47.484;9.726;2023-02-01T11:38:10;2.95;;;1.35;;
13051;SDS011;6592;47.484;9.726;2023-02-01T11:40:44;4.13;;;1.48;;
13051;SDS011;6592;47.484;9.726;2023-02-01T11:43:13;3.97;;;1.65;;
13051;SDS011;6592;47.484;9.726;2023-02-01T11:45:53;9.80;;;2.38;;
13051;SDS011;6592;47.484;9.726;2023-02-01T11:48:23;5.97;;;1.90;;
13051;SDS011;6592;47.484;9.726;2023-02-01T11:51:07;6.70;;;2.30;;
13051;SDS011;6592;47.484;9.726;2023-02-01T11:53:51;5.93;;;2.30;;
13051;SDS011;6592;47.484;9.726;2023-02-01T11:56:30;8.40;;;3.85;;
13051;SDS011;6592;47.484;9.726;2023-02-01T11:59:12;8.80;;;3.72;;
13051;SDS011;6592;47.484;9.726;2023-02-01T12:02:00;7.00;;;3.28;;
13051;SDS011;6592;47.484;9.726;2023-02-01T12:04:54;7.30;;;3.30;;
13051;SDS011;6592;47.484;9.726;2023-02-01T12:07:44;10.68;;;3.67;;
13051;SDS011;6592;47.484;9.726;2023-02-01T12:10:27;9.68;;;3.50;;
13051;SDS011;6592;47.484;9.726;2023-02-01T12:13:08;9.65;;;3.67;;
13051;SDS011;6592;47.484;9.726;2023-02-01T12:15:52;6.22;;;2.83;;
13051;SDS011;6592;47.484;9.726;2023-02-01T12:18:44;8.10;;;3.50;;
13051;SDS011;6592;47.484;9.726;2023-02-01T12:21:38;6.95;;;2.83;;
13051;SDS011;6592;47.484;9.726;2023-02-01T12:24:47;7.28;;;3.28;;
13051;SDS011;6592;47.484;9.726;2023-02-01T12:27:36;9.23;;;2.70;;
13051;SDS011;6592;47.484;9.726;2023-02-01T12:30:34;7.55;;;2.97;;
13051;SDS011;6592;47.484;9.726;2023-02-01T12:33:34;11.07;;;3.40;;
13051;SDS011;6592;47.484;9.726;2023-02-01T12:36:13;5.50;;;2.65;;
13051;SDS011;6592;47.484;9.726;2023-02-01T12:38:46;7.38;;;2.70;;
13051;SDS011;6592;47.484;9.726;2023-02-01T12:44:19;5.15;;;2.50;;
13051;SDS011;6592;47.484;9.726;2023-02-01T12:46:59;4.28;;;1.80;;
13051;SDS011;6592;47.484;9.726;2023-02-01T12:49:36;3.53;;;1.50;;
13051;SDS011;6592;47.484;9.726;2023-02-01T12:52:13;2.78;;;1.38;;
13051;SDS011;6592;47.484;9.726;2023-02-01T12:54:47;5.15;;;1.48;;
13051;SDS011;6592;47.484;9.726;2023-02-01T12:57:21;3.97;;;1.30;;
13051;SDS011;6592;47.484;9.726;2023-02-01T12:59:54;1.95;;;0.70;;
13051;SDS011;6592;47.484;9.726;2023-02-01T13:02:30;2.80;;;1.10;;
13051;SDS011;6592;47.484;9.726;2023-02-01T13:05:14;1.20;;;0.65;;
13051;SDS011;6592;47.484;9.726;2023-02-01T13:07:47;2.55;;;1.00;;
13051;SDS011;6592;47.484;9.726;2023-02-01T13:10:18;2.40;;;1.00;;
13051;SDS011;6592;47.484;9.726;2023-02-01T13:12:56;3.50;;;1.17;;
13051;SDS011;6592;47.484;9.726;2023-02-01T13:15:39;2.55;;;1.00;;
13051;SDS011;6592;47.484;9.726;2023-02-01T13:18:16;4.07;;;0.85;;
13051;SDS011;6592;47.484;9.726;2023-02-01T13:20:49;3.95;;;1.30;;
13051;SDS011;6592;47.484;9.726;2023-02-01T13:23:24;2.72;;;0.80;;
13051;SDS011;6592;47.484;9.726;2023-02-01T13:25:55;3.58;;;1.38;;
13051;SDS011;6592;47.484;9.726;2023-02-01T13:28:26;3.25;;;1.00;;
13051;SDS011;6592;47.484;9.726;2023-02-01T13:31:04;2.55;;;0.90;;
13051;SDS011;6592;47.484;9.726;2023-02-01T13:33:57;5.70;;;1.30;;
13051;SDS011;6592;47.484;9.726;2023-02-01T13:36:52;2.88;;;1.10;;
13051;SDS011;6592;47.484;9.726;2023-02-01T13:39:35;3.55;;;1.30;;
13051;SDS011;6592;47.484;9.726;2023-02-01T13:42:14;5.00;;;1.30;;
13051;SDS011;6592;47.484;9.726;2023-02-01T13:44:48;2.85;;;1.10;;
13051;SDS011;6592;47.484;9.726;2023-02-01T13:47:27;2.33;;;1.10;;
13051;SDS011;6592;47.484;9.726;2023-02-01T13:49:58;1.98;;;1.02;;
13051;SDS011;6592;47.484;9.726;2023-02-01T13:52:36;2.05;;;0.85;;
13051;SDS011;6592;47.484;9.726;2023-02-01T13:55:23;3.15;;;1.17;;
13051;SDS011;6592;47.484;9.726;2023-02-01T13:58:02;3.45;;;1.30;;
13051;SDS011;6592;47.484;9.726;2023-02-01T14:00:43;2.47;;;1.10;;
13051;SDS011;6592;47.484;9.726;2023-02-01T14:03:16;4.93;;;1.10;;
13051;SDS011;6592;47.484;9.726;2023-02-01T14:09:21;2.35;;;0.90;;
13051;SDS011;6592;47.484;9.726;2023-02-01T14:15:19;1.83;;;0.85;;
13051;SDS011;6592;47.484;9.726;2023-02-01T14:17:51;2.10;;;0.85;;
13051;SDS011;6592;47.484;9.726;2023-02-01T14:23:16;2.88;;;0.82;;
13051;SDS011;6592;47.484;9.726;2023-02-01T14:25:56;2.92;;;1.20;;
13051;SDS011;6592;47.484;9.726;2023-02-01T14:28:43;3.45;;;1.20;;
13051;SDS011;6592;47.484;9.726;2023-02-01T14:34:24;3.83;;;1.50;;
13051;SDS011;6592;47.484;9.726;2023-02-01T14:36:57;4.38;;;1.58;;
13051;SDS011;6592;47.484;9.726;2023-02-01T14:39:29;3.50;;;1.35;;
13051;SDS011;6592;47.484;9.726;2023-02-01T14:42:02;5.03;;;1.70;;
13051;SDS011;6592;47.484;9.726;2023-02-01T14:47:26;3.90;;;1.40;;
13051;SDS011;6592;47.484;9.726;2023-02-01T14:50:15;5.43;;;1.98;;
13051;SDS011;6592;47.484;9.726;2023-02-01T14:52:50;5.13;;;1.65;;
13051;SDS011;6592;47.484;9.726;2023-02-01T14:55:27;4.80;;;1.70;;
13051;SDS011;6592;47.484;9.726;2023-02-01T14:58:00;3.78;;;1.80;;
13051;SDS011;6592;47.484;9.726;2023-02-01T15:00:32;5.13;;;1.75;;
13051;SDS011;6592;47.484;9.726;2023-02-01T15:03:15;4.65;;;2.03;;
13051;SDS011;6592;47.484;9.726;2023-02-01T15:06:01;5.47;;;2.33;;
13051;SDS011;6592;47.484;9.726;2023-02-01T15:08:33;5.47;;;2.10;;
13051;SDS011;6592;47.484;9.726;2023-02-01T15:11:06;6.70;;;2.80;;
13051;SDS011;6592;47.484;9.726;2023-02-01T15:13:40;4.47;;;1.83;;
13051;SDS011;6592;47.484;9.726;2023-02-01T15:16:18;3.90;;;1.52;;
13051;SDS011;6592;47.484;9.726;2023-02-01T15:18:46;6.13;;;1.73;;
13051;SDS011;6592;47.484;9.726;2023-02-01T15:21:17;4.57;;;1.83;;
13051;SDS011;6592;47.484;9.726;2023-02-01T15:26:39;6.25;;;2.05;;
13051;SDS011;6592;47.484;9.726;2023-02-01T15:29:11;5.50;;;1.90;;
13051;SDS011;6592;47.484;9.726;2023-02-01T15:31:41;7.38;;;2.35;;
13051;SDS011;6592;47.484;9.726;2023-02-01T15:34:11;5.13;;;1.80;;
13051;SDS011;6592;47.484;9.726;2023-02-01T15:36:41;4.90;;;1.90;;
13051;SDS011;6592;47.484;9.726;2023-02-01T15:39:27;6.30;;;1.90;;
13051;SDS011;6592;47.484;9.726;2023-02-01T15:41:59;3.15;;;1.35;;
13051;SDS011;6592;47.484;9.726;2023-02-01T15:44:30;4.63;;;1.70;;
13051;SDS011;6592;47.484;9.726;2023-02-01T15:47:05;5.18;;;2.17;;
13051;SDS011;6592;47.484;9.726;2023-02-01T15:49:37;4.90;;;1.80;;
13051;SDS011;6592;47.484;9.726;2023-02-01T15:52:15;5.28;;;1.60;;
13051;SDS011;6592;47.484;9.726;2023-02-01T15:54:50;7.32;;;2.25;;
13051;SDS011;6592;47.484;9.726;2023-02-01T15:57:22;5.57;;;2.03;;
13051;SDS011;6592;47.484;9.726;2023-02-01T15:59:57;8.55;;;2.28;;
13051;SDS011;6592;47.484;9.726;2023-02-01T16:02:28;4.87;;;1.70;;